createdAt,value
2022-10-02T00:02:16.528Z,2.50
2022-10-02T00:04:48.310Z,3.60
2022-10-02T00:07:23.123Z,2.38
2022-10-02T00:09:56.487Z,2.45
2022-10-02T00:12:28.682Z,2.83
2022-10-02T00:15:07.151Z,3.55
2022-10-02T00:17:39.137Z,3.40
2022-10-02T00:20:16.424Z,3.20
2022-10-02T00:22:58.393Z,2.88
2022-10-02T00:25:39.975Z,2.50
2022-10-02T00:28:18.039Z,2.33
2022-10-02T00:31:20.196Z,2.22
2022-10-02T00:34:32.686Z,2.63
2022-10-02T00:37:20.946Z,2.70
2022-10-02T00:40:26.187Z,3.83
2022-10-02T00:43:12.920Z,2.60
2022-10-02T00:45:39.557Z,2.97
2022-10-02T00:48:25.896Z,3.80
2022-10-02T00:51:10.206Z,3.67
2022-10-02T00:54:00.539Z,3.60
2022-10-02T00:56:49.583Z,2.45
2022-10-02T00:59:26.270Z,2.25
2022-10-02T01:02:27.829Z,4.32
2022-10-02T01:04:54.560Z,2.88
2022-10-02T01:07:23.673Z,3.17
2022-10-02T01:09:50.639Z,3.20
2022-10-02T01:12:17.333Z,2.70
2022-10-02T01:14:44.007Z,3.33
2022-10-02T01:17:35.010Z,3.88
2022-10-02T01:20:05.115Z,3.17
2022-10-02T01:22:42.914Z,3.42
2022-10-02T01:25:12.025Z,3.03
2022-10-02T01:27:39.488Z,5.22
2022-10-02T01:30:12.600Z,3.05
2022-10-02T01:32:55.910Z,3.13
2022-10-02T01:35:27.255Z,3.28
2022-10-02T01:37:55.105Z,2.50
2022-10-02T01:40:33.062Z,2.60
2022-10-02T01:43:08.242Z,6.38
2022-10-02T01:45:59.718Z,3.10
2022-10-02T01:48:48.429Z,2.70
2022-10-02T01:51:44.571Z,3.78
2022-10-02T01:54:36.332Z,3.67
2022-10-02T01:57:21.509Z,2.92
2022-10-02T02:00:09.900Z,2.80
2022-10-02T02:02:53.986Z,3.10
2022-10-02T02:05:46.709Z,3.10
2022-10-02T02:08:36.476Z,3.28
2022-10-02T02:11:03.070Z,4.35
2022-10-02T02:13:40.185Z,3.58
2022-10-02T02:16:32.017Z,3.63
2022-10-02T02:19:06.985Z,3.25
2022-10-02T02:21:41.583Z,5.32
2022-10-02T02:24:17.744Z,4.10
2022-10-02T02:26:52.239Z,3.30
2022-10-02T02:29:23.374Z,3.17
2022-10-02T02:31:53.133Z,4.15
2022-10-02T02:34:30.244Z,3.28
2022-10-02T02:37:05.134Z,3.30
2022-10-02T02:39:42.158Z,4.43
2022-10-02T02:42:17.560Z,3.53
2022-10-02T02:44:56.830Z,4.07
2022-10-02T02:47:41.322Z,3.15
2022-10-02T02:50:24.157Z,3.95
2022-10-02T02:53:32.322Z,3.90
2022-10-02T02:56:05.562Z,2.90
2022-10-02T02:58:50.763Z,3.30
2022-10-02T03:01:20.521Z,3.72
2022-10-02T03:03:47.672Z,2.97
2022-10-02T03:06:18.769Z,3.53
2022-10-02T03:08:47.598Z,3.78
2022-10-02T03:11:26.737Z,3.88
2022-10-02T03:14:09.685Z,2.95
2022-10-02T03:16:57.254Z,2.90
2022-10-02T03:19:33.578Z,2.88
2022-10-02T03:22:21.836Z,2.38
2022-10-02T03:25:26.054Z,3.53
2022-10-02T03:28:03.292Z,1.98
2022-10-02T03:30:33.433Z,2.75
2022-10-02T03:33:01.640Z,2.78
2022-10-02T03:35:29.475Z,2.88
2022-10-02T03:38:04.959Z,3.55
2022-10-02T03:40:34.193Z,2.05
2022-10-02T03:43:01.670Z,2.55
2022-10-02T03:45:49.981Z,2.35
2022-10-02T03:48:16.845Z,2.75
2022-10-02T03:50:46.472Z,2.95
2022-10-02T03:53:21.223Z,2.42
2022-10-02T03:58:27.679Z,2.00
2022-10-02T04:00:59.302Z,2.78
2022-10-02T04:03:51.213Z,2.17
2022-10-02T04:06:26.445Z,2.10
2022-10-02T04:09:05.354Z,3.00
2022-10-02T04:11:38.477Z,2.63
2022-10-02T04:14:21.364Z,5.07
2022-10-02T04:16:57.265Z,2.30
2022-10-02T04:19:32.093Z,3.10
2022-10-02T04:22:21.475Z,3.65
2022-10-02T04:25:10.581Z,2.95
2022-10-02T04:27:41.977Z,3.22
2022-10-02T04:30:18.237Z,3.17
2022-10-02T04:32:47.647Z,2.83
2022-10-02T04:35:47.560Z,2.78
2022-10-02T04:38:40.809Z,3.33
2022-10-02T04:41:40.925Z,3.33
2022-10-02T04:44:33.757Z,2.80
2022-10-02T04:49:40.809Z,2.42
2022-10-02T04:52:19.561Z,3.28
2022-10-02T04:55:14.704Z,2.00
2022-10-02T04:57:56.282Z,3.03
2022-10-02T05:00:36.939Z,2.50
2022-10-02T05:03:31.660Z,3.55
2022-10-02T05:06:16.169Z,2.47
2022-10-02T05:08:51.877Z,3.40
2022-10-02T05:11:50.989Z,2.83
2022-10-02T05:14:26.492Z,2.22
2022-10-02T05:17:34.222Z,2.80
2022-10-02T05:20:03.959Z,3.33
2022-10-02T05:22:51.626Z,2.28
2022-10-02T05:25:33.589Z,2.22
2022-10-02T05:28:31.329Z,2.40
2022-10-02T05:31:19.450Z,3.50
2022-10-02T05:34:35.185Z,1.92
2022-10-02T05:37:18.052Z,2.60
2022-10-02T05:40:17.873Z,2.13
2022-10-02T05:43:01.392Z,2.33
2022-10-02T05:45:40.564Z,2.15
2022-10-02T05:48:29.674Z,2.22
2022-10-02T05:51:13.431Z,3.13
2022-10-02T05:54:05.628Z,2.30
2022-10-02T05:56:38.828Z,1.92
2022-10-02T05:59:34.049Z,2.17
2022-10-02T06:02:25.120Z,1.92
2022-10-02T06:05:17.639Z,2.05
2022-10-02T06:07:49.961Z,2.03
2022-10-02T06:13:02.112Z,2.13
2022-10-02T06:15:42.825Z,2.30
2022-10-02T06:18:15.850Z,2.70
2022-10-02T06:20:57.573Z,2.25
2022-10-02T06:23:35.305Z,2.00
2022-10-02T06:26:09.757Z,2.40
2022-10-02T06:28:42.664Z,2.42
2022-10-02T06:31:38.118Z,2.08
2022-10-02T06:34:06.989Z,2.00
2022-10-02T06:36:51.945Z,1.98
2022-10-02T06:39:45.384Z,2.30
2022-10-02T06:42:20.441Z,2.47
2022-10-02T06:45:18.629Z,2.25
2022-10-02T06:48:15.773Z,2.17
2022-10-02T06:50:57.265Z,2.50
2022-10-02T06:53:41.754Z,2.58
2022-10-02T06:56:26.451Z,2.83
2022-10-02T06:59:06.681Z,2.05
2022-10-02T07:02:01.996Z,1.75
2022-10-02T07:04:42.070Z,1.90
2022-10-02T07:07:41.896Z,2.22
2022-10-02T07:10:32.843Z,1.90
2022-10-02T07:13:12.222Z,2.60
2022-10-02T07:16:09.128Z,1.92
2022-10-02T07:19:13.673Z,2.88
2022-10-02T07:21:54.954Z,2.88
2022-10-02T07:24:58.149Z,1.90
2022-10-02T07:27:36.418Z,2.15
2022-10-02T07:30:08.560Z,2.05
2022-10-02T07:32:48.386Z,2.05
2022-10-02T07:35:49.328Z,2.13
2022-10-02T07:38:43.331Z,2.65
2022-10-02T07:41:33.607Z,1.80
2022-10-02T07:44:25.106Z,2.10
2022-10-02T07:47:10.164Z,1.98
2022-10-02T07:49:55.628Z,1.77
2022-10-02T07:52:37.580Z,2.72
2022-10-02T07:55:16.189Z,1.73
2022-10-02T07:58:00.017Z,2.42
2022-10-02T08:00:31.313Z,1.60
2022-10-02T08:03:02.310Z,1.75
2022-10-02T08:05:52.389Z,2.38
2022-10-02T08:08:38.597Z,1.67
2022-10-02T08:11:19.368Z,1.52
2022-10-02T08:14:07.357Z,1.70
2022-10-02T08:16:45.731Z,1.35
2022-10-02T08:19:43.230Z,1.85
2022-10-02T08:22:32.859Z,2.08
2022-10-02T08:25:05.935Z,2.00
2022-10-02T08:27:56.087Z,1.98
2022-10-02T08:30:22.758Z,1.50
2022-10-02T08:32:49.366Z,1.40
2022-10-02T08:35:18.383Z,1.50
2022-10-02T08:38:10.110Z,1.58
2022-10-02T08:40:42.338Z,1.60
2022-10-02T08:43:27.861Z,1.08
2022-10-02T08:46:28.972Z,1.52
2022-10-02T08:49:14.392Z,1.40
2022-10-02T08:51:53.078Z,1.63
2022-10-02T08:54:36.691Z,1.42
2022-10-02T08:57:36.278Z,1.27
2022-10-02T09:00:20.620Z,1.50
2022-10-02T09:03:06.120Z,1.20
2022-10-02T09:06:03.114Z,1.23
2022-10-02T09:08:48.384Z,1.95
2022-10-02T09:11:46.047Z,1.35
2022-10-02T09:14:33.681Z,1.83
2022-10-02T09:17:10.158Z,0.98
2022-10-02T09:20:04.836Z,1.38
2022-10-02T09:22:50.497Z,1.13
2022-10-02T09:25:32.107Z,1.80
2022-10-02T09:28:31.108Z,1.37
2022-10-02T09:31:42.595Z,1.23
2022-10-02T09:34:28.004Z,1.35
2022-10-02T09:37:19.758Z,1.45
2022-10-02T09:40:13.566Z,1.08
2022-10-02T09:43:18.836Z,1.35
2022-10-02T09:46:01.429Z,1.40
2022-10-02T09:49:03.052Z,1.30
2022-10-02T09:51:42.305Z,1.60
2022-10-02T09:54:29.951Z,1.60
2022-10-02T09:57:24.593Z,1.05
2022-10-02T10:00:25.630Z,1.45
2022-10-02T10:03:40.134Z,1.85
2022-10-02T10:06:20.905Z,1.40
2022-10-02T10:09:09.060Z,1.40
2022-10-02T10:12:08.441Z,1.85
2022-10-02T10:14:48.037Z,1.90
2022-10-02T10:17:48.241Z,1.58
2022-10-02T10:20:51.661Z,2.40
2022-10-02T10:23:31.560Z,2.28
2022-10-02T10:26:26.285Z,2.22
2022-10-02T10:29:24.506Z,1.65
2022-10-02T10:32:03.153Z,2.03
2022-10-02T10:34:46.122Z,1.80
2022-10-02T10:37:56.442Z,1.73
2022-10-02T10:41:00.524Z,1.90
2022-10-02T10:44:01.521Z,2.15
2022-10-02T10:47:02.968Z,2.47
2022-10-02T10:50:02.138Z,2.58
2022-10-02T10:52:51.424Z,2.40
2022-10-02T10:55:59.088Z,2.17
2022-10-02T10:58:53.880Z,3.70
2022-10-02T11:01:30.213Z,2.38
2022-10-02T11:04:21.462Z,2.78
2022-10-02T11:07:09.522Z,2.80
2022-10-02T11:10:17.765Z,2.83
2022-10-02T11:13:16.732Z,3.00
2022-10-02T11:16:08.400Z,2.58
2022-10-02T11:18:54.813Z,4.47
2022-10-02T11:21:45.049Z,3.03
2022-10-02T11:24:30.317Z,2.72
2022-10-02T11:27:29.558Z,3.17
2022-10-02T11:30:24.264Z,3.00
2022-10-02T11:32:56.713Z,3.10
2022-10-02T11:35:54.754Z,3.40
2022-10-02T11:38:54.119Z,2.50
2022-10-02T11:41:54.420Z,3.30
2022-10-02T11:44:55.555Z,4.00
2022-10-02T11:47:52.197Z,2.65
2022-10-02T11:50:55.882Z,2.72
2022-10-02T11:53:46.227Z,3.05
2022-10-02T11:56:43.900Z,4.03
2022-10-02T11:59:37.971Z,3.10
2022-10-02T12:02:34.603Z,3.40
2022-10-02T12:05:22.065Z,2.60
2022-10-02T12:08:07.654Z,2.72
2022-10-02T12:10:48.956Z,3.08
2022-10-02T12:13:31.559Z,3.10
2022-10-02T12:16:06.192Z,3.45
2022-10-02T12:18:44.854Z,3.38
2022-10-02T12:22:09.670Z,3.80
2022-10-02T12:25:06.908Z,2.88
2022-10-02T12:27:50.683Z,2.70
2022-10-02T12:30:48.789Z,3.15
2022-10-02T12:33:45.517Z,2.70
2022-10-02T12:36:34.706Z,2.80
2022-10-02T12:39:15.294Z,3.00
2022-10-02T12:41:58.842Z,3.47
2022-10-02T12:44:58.105Z,3.20
2022-10-02T12:47:53.259Z,2.92
2022-10-02T12:50:52.432Z,3.75
2022-10-02T12:53:33.889Z,3.17
2022-10-02T12:56:28.519Z,2.88
2022-10-02T12:59:08.529Z,3.20
2022-10-02T13:02:16.465Z,3.70
2022-10-02T13:04:45.892Z,3.38
2022-10-02T13:07:32.904Z,3.28
2022-10-02T13:10:02.219Z,3.58
2022-10-02T13:12:50.791Z,3.40
2022-10-02T13:15:35.699Z,3.42
2022-10-02T13:18:09.931Z,3.28
2022-10-02T13:20:41.854Z,4.65
2022-10-02T13:23:23.705Z,3.08
2022-10-02T13:26:15.770Z,2.88
2022-10-02T13:29:01.996Z,3.10
2022-10-02T13:32:01.914Z,3.45
2022-10-02T13:34:38.593Z,3.88
2022-10-02T13:37:17.098Z,3.17
2022-10-02T13:40:05.649Z,3.63
2022-10-02T13:42:36.960Z,3.30
2022-10-02T13:45:26.264Z,3.25
2022-10-02T13:48:07.906Z,3.95
2022-10-02T13:50:50.169Z,3.83
2022-10-02T13:53:46.399Z,3.58
2022-10-02T13:56:30.955Z,4.65
2022-10-02T13:59:36.410Z,5.00
2022-10-02T14:02:16.083Z,4.13
2022-10-02T14:05:19.238Z,3.80
2022-10-02T14:08:10.416Z,5.22
2022-10-02T14:10:39.757Z,3.95
2022-10-02T14:13:33.927Z,4.75
2022-10-02T14:16:21.859Z,4.82
2022-10-02T14:19:05.833Z,4.07
2022-10-02T14:21:40.064Z,3.92
2022-10-02T14:24:48.057Z,4.55
2022-10-02T14:28:02.661Z,3.95
2022-10-02T14:30:29.314Z,4.32
2022-10-02T14:33:01.687Z,4.00
2022-10-02T14:35:28.302Z,3.95
2022-10-02T14:38:10.078Z,3.90
2022-10-02T14:40:48.277Z,4.38
2022-10-02T14:43:37.668Z,3.25
2022-10-02T14:46:38.217Z,3.40
2022-10-02T14:49:30.108Z,3.63
2022-10-02T14:52:20.797Z,3.60
2022-10-02T14:55:05.900Z,3.00
2022-10-02T14:57:58.166Z,2.45
2022-10-02T15:00:28.643Z,1.75
2022-10-02T15:03:15.633Z,2.97
2022-10-02T15:05:48.218Z,1.70
2022-10-02T15:08:27.069Z,2.28
2022-10-02T15:10:53.820Z,1.88
2022-10-02T15:13:44.509Z,2.03
2022-10-02T15:16:44.217Z,1.73
2022-10-02T15:19:22.906Z,1.83
2022-10-02T15:22:03.571Z,1.55
2022-10-02T15:24:57.687Z,1.58
2022-10-02T15:27:26.456Z,1.83
2022-10-02T15:30:01.548Z,2.10
2022-10-02T15:32:51.043Z,2.33
2022-10-02T15:35:46.939Z,1.90
2022-10-02T15:38:35.776Z,1.95
2022-10-02T15:41:11.591Z,1.83
2022-10-02T15:43:48.313Z,2.42
2022-10-02T15:46:24.200Z,2.50
2022-10-02T15:49:08.409Z,2.08
2022-10-02T15:51:44.866Z,2.22
2022-10-02T15:54:41.850Z,1.80
2022-10-02T15:57:16.762Z,2.03
2022-10-02T16:00:02.569Z,2.42
2022-10-02T16:02:53.590Z,1.77
2022-10-02T16:05:43.644Z,1.75
2022-10-02T16:08:35.501Z,1.80
2022-10-02T16:11:18.882Z,1.93
2022-10-02T16:14:01.295Z,3.45
2022-10-02T16:16:59.074Z,2.15
2022-10-02T16:19:28.747Z,2.00
2022-10-02T16:22:30.373Z,1.90
2022-10-02T16:25:21.863Z,2.92
2022-10-02T16:27:51.626Z,1.88
2022-10-02T16:30:24.026Z,1.60
2022-10-02T16:36:11.271Z,1.48
2022-10-02T16:38:56.378Z,1.80
2022-10-02T16:41:48.951Z,1.85
2022-10-02T16:44:36.618Z,1.50
2022-10-02T16:47:38.381Z,1.60
2022-10-02T16:50:19.603Z,1.77
2022-10-02T16:53:06.541Z,1.65
2022-10-02T16:56:06.724Z,2.03
2022-10-02T16:58:45.449Z,1.48
2022-10-02T17:01:34.578Z,1.95
2022-10-02T17:04:21.246Z,1.75
2022-10-02T17:07:26.822Z,2.72
2022-10-02T17:10:28.998Z,1.50
2022-10-02T17:13:25.713Z,1.60
2022-10-02T17:16:11.555Z,1.50
2022-10-02T17:18:48.481Z,2.05
2022-10-02T17:21:40.137Z,1.75
2022-10-02T17:24:25.206Z,2.00
2022-10-02T17:27:22.346Z,1.73
2022-10-02T17:30:07.006Z,1.77
2022-10-02T17:32:48.323Z,1.90
2022-10-02T17:35:24.034Z,2.17
2022-10-02T17:38:11.622Z,1.88
2022-10-02T17:40:54.167Z,2.45
2022-10-02T17:46:08.712Z,2.10
2022-10-02T17:48:41.566Z,1.67
2022-10-02T17:51:51.144Z,1.90
2022-10-02T17:54:47.175Z,1.67
2022-10-02T17:57:24.442Z,2.40
2022-10-02T18:00:21.756Z,1.73
2022-10-02T18:03:07.015Z,1.85
2022-10-02T18:05:56.348Z,1.63
2022-10-02T18:09:00.337Z,2.13
2022-10-02T18:11:42.628Z,1.70
2022-10-02T18:14:16.948Z,1.85
2022-10-02T18:16:56.594Z,2.35
2022-10-02T18:19:47.813Z,1.90
2022-10-02T18:22:38.877Z,2.22
2022-10-02T18:25:07.607Z,3.00
2022-10-02T18:28:00.044Z,1.60
2022-10-02T18:30:53.577Z,1.95
2022-10-02T18:33:50.049Z,1.70
2022-10-02T18:36:28.153Z,1.63
2022-10-02T18:39:11.295Z,1.98
2022-10-02T18:41:54.410Z,1.60
2022-10-02T18:44:41.883Z,1.70
2022-10-02T18:47:39.452Z,1.90
2022-10-02T18:50:37.021Z,2.10
2022-10-02T18:53:31.717Z,2.03
2022-10-02T18:56:09.297Z,1.65
2022-10-02T18:59:00.373Z,2.42
2022-10-02T19:01:56.572Z,2.40
2022-10-02T19:04:51.326Z,2.30
2022-10-02T19:07:47.725Z,2.20
2022-10-02T19:10:40.093Z,1.92
2022-10-02T19:13:16.423Z,2.33
2022-10-02T19:15:48.704Z,1.98
2022-10-02T19:18:24.441Z,2.67
2022-10-02T19:21:08.204Z,2.30
2022-10-02T19:23:46.660Z,1.80
2022-10-02T19:26:23.775Z,2.17
2022-10-02T19:29:04.042Z,1.58
2022-10-02T19:31:41.568Z,2.53
2022-10-02T19:34:30.508Z,2.25
2022-10-02T19:37:03.443Z,2.05
2022-10-02T19:39:35.371Z,2.22
2022-10-02T19:42:19.221Z,2.03
2022-10-02T19:44:50.654Z,1.83
2022-10-02T19:47:43.954Z,2.40
2022-10-02T19:50:44.137Z,2.60
2022-10-02T19:53:36.410Z,2.72
2022-10-02T19:56:39.647Z,2.00
2022-10-02T19:59:20.065Z,2.50
2022-10-02T20:01:55.089Z,2.67
2022-10-02T20:04:24.948Z,1.90
2022-10-02T20:07:00.079Z,1.58
2022-10-02T20:09:37.776Z,2.63
2022-10-02T20:12:14.457Z,2.72
2022-10-02T20:14:57.094Z,2.70
2022-10-02T20:19:57.324Z,2.50
2022-10-02T20:22:30.118Z,1.92
2022-10-02T20:25:09.185Z,2.38
2022-10-02T20:27:54.172Z,2.67
2022-10-02T20:30:23.161Z,2.10
2022-10-02T20:33:13.554Z,2.22
2022-10-02T20:35:45.090Z,2.00
2022-10-02T20:38:20.781Z,2.73
2022-10-02T20:40:53.090Z,2.30
2022-10-02T20:46:35.997Z,2.55
2022-10-02T20:49:30.526Z,2.28
2022-10-02T20:52:18.909Z,2.17
2022-10-02T20:55:00.520Z,1.23
2022-10-02T20:58:01.670Z,2.27
2022-10-02T21:00:43.950Z,1.75
2022-10-02T21:03:23.758Z,2.47
2022-10-02T21:06:08.121Z,1.52
2022-10-02T21:08:56.865Z,1.50
2022-10-02T21:12:02.104Z,1.65
2022-10-02T21:14:53.773Z,1.80
2022-10-02T21:17:47.712Z,1.83
2022-10-02T21:20:59.716Z,1.73
2022-10-02T21:23:49.402Z,1.52
2022-10-02T21:26:30.154Z,1.90
2022-10-02T21:29:34.829Z,1.50
2022-10-02T21:32:29.276Z,1.58
2022-10-02T21:35:17.050Z,2.20
2022-10-02T21:37:47.177Z,2.95
2022-10-02T21:40:32.385Z,1.70
2022-10-02T21:43:01.952Z,3.05
2022-10-02T21:45:48.932Z,2.40
2022-10-02T21:49:08.645Z,2.20
2022-10-02T21:52:20.517Z,2.22
2022-10-02T21:55:09.525Z,1.98
2022-10-02T21:57:50.473Z,2.00
2022-10-02T22:00:31.376Z,1.80
2022-10-02T22:03:12.268Z,2.40
2022-10-02T22:06:01.713Z,3.35
2022-10-02T22:08:36.504Z,2.17
2022-10-02T22:11:23.947Z,2.38
2022-10-02T22:13:54.765Z,2.58
2022-10-02T22:16:47.237Z,2.30
2022-10-02T22:19:48.558Z,2.40
2022-10-02T22:22:39.992Z,2.55
2022-10-02T22:25:27.369Z,2.60
2022-10-02T22:28:04.548Z,3.03
2022-10-02T22:30:47.625Z,3.10
2022-10-02T22:33:34.162Z,2.42
2022-10-02T22:36:18.646Z,3.03
2022-10-02T22:38:46.305Z,2.28
2022-10-02T22:41:16.154Z,2.78
2022-10-02T22:43:55.522Z,2.72
2022-10-02T22:46:28.050Z,2.95
2022-10-02T22:49:30.184Z,2.60
2022-10-02T22:52:33.233Z,3.30
2022-10-02T22:57:55.658Z,2.05
2022-10-02T23:00:25.984Z,1.65
2022-10-02T23:03:25.437Z,2.25
2022-10-02T23:06:31.392Z,2.30
2022-10-02T23:09:06.962Z,1.70
2022-10-02T23:11:42.078Z,1.98
2022-10-02T23:14:27.608Z,2.20
2022-10-02T23:17:22.273Z,1.98
2022-10-02T23:19:55.775Z,1.92
2022-10-02T23:22:37.633Z,2.00
2022-10-02T23:25:14.451Z,2.83
2022-10-02T23:28:10.665Z,3.25
2022-10-02T23:30:45.514Z,2.30
2022-10-02T23:33:52.173Z,2.88
2022-10-02T23:36:33.218Z,2.28
2022-10-02T23:39:16.953Z,1.85
2022-10-02T23:41:54.095Z,3.08
2022-10-02T23:44:32.606Z,3.38
2022-10-02T23:47:11.285Z,2.70
2022-10-02T23:49:53.202Z,3.15
2022-10-02T23:52:26.446Z,3.00
2022-10-02T23:55:18.301Z,2.80
2022-10-02T23:57:44.928Z,3.00
